Time;durP1;ratioP1;P1;durP2;ratioP2;P2;SDS_P1;SDS_P2;PMS_P1;PMS_P2;Temp;Humidity;BMP_temperature;BMP_pressure;BME280_temperature;BME280_humidity;BME280_pressure;Samples;Min_cycle;Max_cycle;Signal;HPM_P1;HPM_P2
2022/10/26 00:00:49;;;;;;;9.30;3.28;;;12.50;99.90;;;;;;5090871;28;20040;-68
2022/10/26 00:03:15;;;;;;;6.07;3.13;;;12.60;99.90;;;;;;5090892;28;20032;-69
2022/10/26 00:05:41;;;;;;;10.07;3.67;;;12.60;99.90;;;;;;5090788;28;20032;-68
2022/10/26 00:08:08;;;;;;;10.50;4.20;;;12.60;99.90;;;;;;5090589;28;20108;-67
2022/10/26 00:10:35;;;;;;;8.45;3.60;;;12.60;99.90;;;;;;5072640;28;20030;-68
2022/10/26 00:13:01;;;;;;;10.25;3.17;;;12.60;99.90;;;;;;5090620;28;20153;-68
2022/10/26 00:15:28;;;;;;;9.23;3.10;;;12.60;99.90;;;;;;5090492;28;20028;-67
2022/10/26 00:17:54;;;;;;;7.40;2.85;;;12.60;99.90;;;;;;5090388;28;20028;-68
2022/10/26 00:20:20;;;;;;;7.60;2.60;;;12.60;99.90;;;;;;5090465;28;20189;-67
2022/10/26 00:22:46;;;;;;;7.80;2.50;;;12.70;99.90;;;;;;5091375;28;20147;-68
2022/10/26 00:25:12;;;;;;;7.88;2.75;;;12.70;99.90;;;;;;5093790;28;20545;-66
2022/10/26 00:27:38;;;;;;;5.85;2.50;;;12.70;99.90;;;;;;5093934;28;20480;-67
2022/10/26 00:30:05;;;;;;;7.10;2.42;;;12.70;99.90;;;;;;5075584;28;20039;-67
2022/10/26 00:32:32;;;;;;;10.32;3.28;;;12.70;99.90;;;;;;5093871;28;20024;-67
2022/10/26 00:34:58;;;;;;;5.63;2.20;;;12.70;99.90;;;;;;5093979;28;20034;-67
2022/10/26 00:37:24;;;;;;;8.00;2.40;;;12.70;99.90;;;;;;5093515;28;20070;-68
2022/10/26 00:39:50;;;;;;;7.68;2.38;;;12.80;99.90;;;;;;5093783;28;20031;-67
2022/10/26 00:42:23;;;;;;;6.80;2.33;;;12.80;99.90;;;;;;5093979;28;20043;-67
2022/10/26 00:44:48;;;;;;;3.83;1.98;;;12.90;99.90;;;;;;5093847;28;20028;-66
2022/10/26 00:47:36;;;;;;;6.72;1.90;;;12.90;99.90;;;;;;5093587;28;20504;-67
2022/10/26 00:50:08;;;;;;;7.18;2.05;;;13.00;99.90;;;;;;5093776;28;20107;-67
2022/10/26 00:52:36;;;;;;;5.00;2.28;;;13.00;99.90;;;;;;5093584;28;20126;-66
2022/10/26 00:55:02;;;;;;;6.88;2.00;;;13.00;99.90;;;;;;5093579;28;20532;-68
2022/10/26 00:57:28;;;;;;;6.53;2.15;;;13.00;99.90;;;;;;5093401;28;20469;-68
2022/10/26 00:59:58;;;;;;;3.80;1.85;;;12.90;99.90;;;;;;5093319;28;20039;-65
2022/10/26 01:02:24;;;;;;;;;;;12.90;99.90;;;;;;5093775;28;20398;-68
2022/10/26 01:04:52;;;;;;;6.72;2.33;;;12.90;99.90;;;;;;5093580;28;19998;-68
2022/10/26 01:07:19;;;;;;;4.38;1.98;;;12.80;99.90;;;;;;5093276;28;20081;-67
2022/10/26 01:09:46;;;;;;;5.22;1.98;;;12.90;99.90;;;;;;5093322;28;20036;-69
2022/10/26 01:12:11;;;;;;;5.07;1.63;;;12.90;99.90;;;;;;5093403;28;20032;-68
2022/10/26 01:14:38;;;;;;;3.17;1.80;;;12.80;99.90;;;;;;5093312;28;20071;-69
2022/10/26 01:17:04;;;;;;;7.03;2.05;;;12.90;99.90;;;;;;5075188;28;20098;-68
2022/10/26 01:19:51;;;;;;;7.55;2.38;;;12.90;99.90;;;;;;5093169;28;20476;-67
2022/10/26 01:22:19;;;;;;;6.95;2.35;;;12.80;99.90;;;;;;5093005;28;20024;-68
2022/10/26 01:27:44;;;;;;;;;;;12.80;99.90;;;;;;4991678;28;20046;-71
2022/10/26 01:30:15;;;;;;;7.00;1.92;;;12.80;99.90;;;;;;4992931;28;19957;-71
2022/10/26 01:32:58;;;;;;;6.70;2.03;;;12.80;99.90;;;;;;5001705;28;20030;-71
2022/10/26 01:35:36;;;;;;;3.65;1.75;;;12.90;99.90;;;;;;5012484;28;20026;-71
2022/10/26 01:38:21;;;;;;;6.10;2.10;;;12.90;99.90;;;;;;5012391;28;20496;-71
2022/10/26 01:41:02;;;;;;;6.88;1.60;;;12.90;99.90;;;;;;5012414;28;20030;-71
2022/10/26 01:43:34;;;;;;;3.80;1.77;;;13.00;99.90;;;;;;5012337;28;20034;-71
2022/10/26 01:46:03;;;;;;;7.07;1.80;;;13.00;99.90;;;;;;5012249;28;20026;-71
2022/10/26 01:48:29;;;;;;;8.13;1.67;;;13.00;99.90;;;;;;4994686;28;20479;-71
2022/10/26 01:50:57;;;;;;;7.43;1.80;;;13.00;99.90;;;;;;5012382;28;20517;-71
2022/10/26 01:53:25;;;;;;;4.43;1.80;;;13.00;99.90;;;;;;5012400;28;20096;-71
2022/10/26 01:55:53;;;;;;;6.38;2.00;;;13.00;99.90;;;;;;5012165;28;20034;-71
2022/10/26 01:58:51;;;;;;;6.28;2.00;;;13.00;99.90;;;;;;5011912;28;20061;-71
2022/10/26 02:01:34;;;;;;;4.57;1.95;;;13.00;99.90;;;;;;4994310;28;20061;-71
2022/10/26 02:04:09;;;;;;;3.90;1.65;;;13.00;99.90;;;;;;5012397;28;20121;-71
2022/10/26 02:06:56;;;;;;;7.03;1.73;;;13.00;99.90;;;;;;5004443;28;20026;-71
2022/10/26 02:09:43;;;;;;;5.57;1.80;;;13.00;99.90;;;;;;5012139;28;20061;-71
2022/10/26 02:12:19;;;;;;;5.53;1.67;;;13.00;99.90;;;;;;5012005;28;20021;-71
2022/10/26 02:14:50;;;;;;;5.63;1.70;;;13.00;99.90;;;;;;5011975;28;20029;-71
2022/10/26 02:17:18;;;;;;;7.05;1.50;;;13.00;99.90;;;;;;5011585;28;20482;-71
2022/10/26 02:19:53;;;;;;;5.43;1.55;;;13.00;99.90;;;;;;5011609;28;20026;-71
2022/10/26 02:22:27;;;;;;;6.18;1.80;;;13.00;99.90;;;;;;5011729;28;20379;-71
2022/10/26 02:24:55;;;;;;;4.43;1.50;;;13.00;99.90;;;;;;5011753;28;20076;-71
2022/10/26 02:27:26;;;;;;;4.45;1.58;;;13.00;99.90;;;;;;4977738;28;20033;-71
2022/10/26 02:29:54;;;;;;;4.07;1.67;;;13.00;99.90;;;;;;5011225;28;20030;-71
2022/10/26 02:32:25;;;;;;;7.00;1.92;;;13.00;99.90;;;;;;5011497;28;20041;-71
2022/10/26 02:34:53;;;;;;;6.78;1.85;;;13.10;99.90;;;;;;5011378;28;20483;-71
2022/10/26 02:37:21;;;;;;;6.20;1.67;;;13.10;99.90;;;;;;4993746;28;20053;-71
2022/10/26 02:39:49;;;;;;;5.00;1.80;;;13.10;99.90;;;;;;5011397;28;20502;-71
2022/10/26 02:42:18;;;;;;;5.53;1.48;;;13.10;99.90;;;;;;5011308;28;20509;-71
2022/10/26 02:44:53;;;;;;;4.47;1.65;;;13.10;99.90;;;;;;5011136;28;20030;-71
2022/10/26 02:47:20;;;;;;;4.32;1.50;;;13.20;99.90;;;;;;5011229;28;20338;-71
2022/10/26 02:49:46;;;;;;;5.03;1.60;;;13.20;99.90;;;;;;5011004;28;20042;-71
2022/10/26 02:52:38;;;;;;;4.57;1.45;;;13.20;99.90;;;;;;5011123;28;20036;-71
2022/10/26 02:55:24;;;;;;;3.10;1.58;;;13.20;99.90;;;;;;5011824;28;20034;-71
2022/10/26 02:57:58;;;;;;;5.50;1.88;;;13.20;99.90;;;;;;5011199;28;20403;-71
2022/10/26 03:00:24;;;;;;;3.38;1.42;;;13.20;99.90;;;;;;5011070;28;20089;-71
2022/10/26 03:02:53;;;;;;;7.68;1.80;;;13.30;99.90;;;;;;5011272;28;20022;-71
2022/10/26 03:05:24;;;;;;;5.95;2.25;;;13.30;99.90;;;;;;4993542;28;20065;-71
2022/10/26 03:07:51;;;;;;;7.10;2.00;;;13.30;99.90;;;;;;5011024;28;20026;-71
2022/10/26 03:10:17;;;;;;;8.18;1.92;;;13.30;99.90;;;;;;5011190;28;20108;-71
2022/10/26 03:12:43;;;;;;;6.78;2.00;;;13.30;99.90;;;;;;5010843;28;20040;-70
2022/10/26 03:15:09;;;;;;;5.65;1.52;;;13.30;99.90;;;;;;5010993;28;20037;-71
2022/10/26 03:17:35;;;;;;;4.90;1.92;;;13.30;99.90;;;;;;5010828;28;20069;-71
2022/10/26 03:20:01;;;;;;;6.78;2.15;;;13.30;99.90;;;;;;5010740;28;20053;-71
2022/10/26 03:22:27;;;;;;;4.93;2.08;;;13.40;99.90;;;;;;5010981;28;20530;-71
2022/10/26 03:24:53;;;;;;;7.28;2.03;;;13.40;99.90;;;;;;5011010;28;20064;-71
2022/10/26 03:27:19;;;;;;;7.05;2.08;;;13.40;99.90;;;;;;5010750;28;20498;-71
2022/10/26 03:29:45;;;;;;;9.65;2.10;;;13.40;99.90;;;;;;5010634;28;20026;-71
2022/10/26 03:32:11;;;;;;;5.03;2.10;;;13.40;99.90;;;;;;5011355;28;20150;-71
2022/10/26 03:34:37;;;;;;;4.35;2.00;;;13.40;99.90;;;;;;5010852;28;20033;-71
2022/10/26 03:37:02;;;;;;;7.05;2.10;;;13.50;99.90;;;;;;5010813;28;20113;-71
2022/10/26 03:39:28;;;;;;;4.18;1.80;;;13.50;99.90;;;;;;4993139;28;20029;-71
2022/10/26 03:41:54;;;;;;;4.05;1.80;;;13.60;99.90;;;;;;5010657;28;20026;-71
2022/10/26 03:44:21;;;;;;;6.20;2.10;;;13.60;99.90;;;;;;5010833;28;20467;-71
2022/10/26 03:46:47;;;;;;;5.47;1.80;;;13.60;99.90;;;;;;5010718;28;20443;-71
2022/10/26 03:49:13;;;;;;;5.82;2.25;;;13.60;99.90;;;;;;5010623;28;20028;-71
2022/10/26 03:51:39;;;;;;;8.77;2.40;;;13.60;99.90;;;;;;5010775;28;20122;-71
2022/10/26 03:54:06;;;;;;;5.22;1.92;;;13.60;99.90;;;;;;5011000;28;20034;-71
2022/10/26 03:56:32;;;;;;;6.03;2.10;;;13.60;99.90;;;;;;5011276;28;20034;-71
2022/10/26 03:58:58;;;;;;;4.43;1.88;;;13.60;99.90;;;;;;5014283;28;20018;-71
2022/10/26 04:01:23;;;;;;;8.63;2.15;;;13.60;99.90;;;;;;4996868;28;20026;-71
2022/10/26 04:03:49;;;;;;;5.35;1.80;;;13.60;99.90;;;;;;5014372;28;20159;-71
2022/10/26 04:06:15;;;;;;;6.63;1.90;;;13.70;99.90;;;;;;5014443;28;20026;-70
2022/10/26 04:08:41;;;;;;;4.47;1.98;;;13.70;99.90;;;;;;5014062;28;20479;-71
2022/10/26 04:11:07;;;;;;;6.85;2.13;;;13.70;99.90;;;;;;5014092;28;20259;-70
2022/10/26 04:13:33;;;;;;;7.45;1.75;;;13.80;99.90;;;;;;5014146;28;20030;-71
2022/10/26 04:15:59;;;;;;;5.78;1.63;;;13.80;99.90;;;;;;5013868;28;20042;-71
2022/10/26 04:18:25;;;;;;;5.15;1.52;;;13.80;99.90;;;;;;5013902;28;20042;-70
2022/10/26 04:20:51;;;;;;;5.85;1.50;;;13.90;99.90;;;;;;4996280;28;20507;-71
2022/10/26 04:23:18;;;;;;;4.45;1.42;;;13.90;99.90;;;;;;4996302;28;20140;-71
2022/10/26 04:25:44;;;;;;;6.80;2.05;;;13.90;99.90;;;;;;5013774;28;20057;-70
2022/10/26 04:28:12;;;;;;;7.57;3.08;;;13.90;99.90;;;;;;5013979;28;20542;-71
2022/10/26 04:30:38;;;;;;;6.28;2.30;;;14.00;99.90;;;;;;5013673;28;20034;-70
2022/10/26 04:33:06;;;;;;;7.13;2.83;;;14.00;99.90;;;;;;4996064;28;20574;-71
2022/10/26 04:35:31;;;;;;;7.07;2.13;;;14.00;99.90;;;;;;4996120;28;20442;-71
2022/10/26 04:38:03;;;;;;;4.82;1.90;;;14.00;99.90;;;;;;4995911;28;20034;-71
2022/10/26 04:40:31;;;;;;;3.63;1.33;;;14.00;99.90;;;;;;5013560;28;20032;-71
2022/10/26 04:42:57;;;;;;;3.78;1.30;;;14.10;99.90;;;;;;5013451;28;20022;-71
2022/10/26 04:45:24;;;;;;;4.57;1.65;;;14.10;99.90;;;;;;5013320;28;20034;-71
2022/10/26 04:48:13;;;;;;;5.25;1.60;;;14.10;99.90;;;;;;5013455;28;20029;-71
2022/10/26 04:50:39;;;;;;;5.18;1.40;;;14.10;99.90;;;;;;5005380;28;20041;-71
2022/10/26 04:53:07;;;;;;;4.57;1.60;;;14.10;99.90;;;;;;5013292;28;20095;-71
2022/10/26 04:55:33;;;;;;;6.15;2.50;;;14.20;99.90;;;;;;5012905;28;20041;-71
2022/10/26 04:57:59;;;;;;;9.48;4.78;;;14.20;99.90;;;;;;5013088;28;20026;-71
2022/10/26 05:00:26;;;;;;;7.43;3.40;;;14.20;99.90;;;;;;5013342;28;20510;-71
2022/10/26 05:02:57;;;;;;;7.68;2.88;;;14.20;99.90;;;;;;4995411;28;20395;-71
2022/10/26 05:05:30;;;;;;;5.18;2.88;;;14.20;99.90;;;;;;5013037;28;20034;-71
2022/10/26 05:07:56;;;;;;;5.97;1.90;;;14.20;99.90;;;;;;5012201;28;20131;-71
2022/10/26 05:10:23;;;;;;;4.25;1.90;;;14.20;99.90;;;;;;5012546;28;20030;-71
2022/10/26 05:12:53;;;;;;;4.75;1.75;;;14.20;99.90;;;;;;5013005;28;20037;-71
2022/10/26 05:15:20;;;;;;;5.85;2.30;;;14.20;99.90;;;;;;4979002;28;20490;-71
2022/10/26 05:17:46;;;;;;;4.28;1.83;;;14.30;99.90;;;;;;4994736;28;20049;-71
2022/10/26 05:20:13;;;;;;;6.57;1.60;;;14.30;99.90;;;;;;5012553;28;20029;-71
2022/10/26 05:22:41;;;;;;;4.68;1.70;;;14.20;99.90;;;;;;5012553;28;20073;-70
2022/10/26 05:25:13;;;;;;;8.07;1.95;;;14.30;99.90;;;;;;5012725;28;20042;-71
2022/10/26 05:27:39;;;;;;;8.07;2.83;;;14.30;99.90;;;;;;5012713;28;20038;-71
2022/10/26 05:30:06;;;;;;;4.25;1.52;;;14.30;99.90;;;;;;5012490;28;20034;-70
2022/10/26 05:32:31;;;;;;;3.97;1.90;;;14.30;99.90;;;;;;5012433;28;20065;-71
2022/10/26 05:34:57;;;;;;;6.35;1.90;;;14.30;99.90;;;;;;5012376;28;20061;-70
2022/10/26 05:37:26;;;;;;;9.57;2.35;;;14.30;99.90;;;;;;5012260;28;20041;-70
2022/10/26 05:39:52;;;;;;;;;;;14.30;99.90;;;;;;5012728;28;20072;-70
2022/10/26 05:42:19;;;;;;;5.13;1.65;;;14.30;99.90;;;;;;5012467;28;19941;-71
2022/10/26 05:44:45;;;;;;;4.43;1.33;;;14.30;99.90;;;;;;5012343;28;20101;-71
2022/10/26 05:47:11;;;;;;;6.97;1.90;;;14.30;99.90;;;;;;4994518;28;20037;-71
2022/10/26 05:49:43;;;;;;;6.05;1.60;;;14.30;99.90;;;;;;5012245;28;20388;-71
2022/10/26 05:52:09;;;;;;;4.90;1.70;;;14.30;99.90;;;;;;5011972;28;20097;-71
2022/10/26 05:54:35;;;;;;;4.07;1.50;;;14.30;99.90;;;;;;5012112;28;20026;-71
2022/10/26 05:57:01;;;;;;;5.25;1.88;;;14.30;99.90;;;;;;5012085;28;20408;-71
2022/10/26 05:59:28;;;;;;;6.05;2.03;;;14.30;99.90;;;;;;5011767;28;20026;-70
2022/10/26 06:02:05;;;;;;;5.05;1.80;;;14.30;99.90;;;;;;5011781;28;20034;-71
2022/10/26 06:04:47;;;;;;;9.80;1.95;;;14.30;99.90;;;;;;5012004;28;20030;-71
2022/10/26 06:07:15;;;;;;;6.35;1.70;;;14.30;99.90;;;;;;5011924;28;20054;-70
2022/10/26 06:09:42;;;;;;;7.00;2.13;;;14.30;99.90;;;;;;5011763;28;20433;-71
2022/10/26 06:12:10;;;;;;;6.10;2.38;;;14.30;99.90;;;;;;5011756;28;20034;-71
2022/10/26 06:14:47;;;;;;;5.05;2.05;;;14.30;99.90;;;;;;4995778;28;20582;-71
2022/10/26 06:17:43;;;;;;;7.22;1.88;;;14.30;99.90;;;;;;5011539;28;20549;-71
2022/10/26 06:20:44;;;;;;;4.03;1.70;;;14.30;99.90;;;;;;5010540;28;20054;-71
2022/10/26 06:23:47;;;;;;;7.95;2.35;;;14.30;99.90;;;;;;5011414;28;20390;-71
2022/10/26 06:26:27;;;;;;;5.32;1.80;;;14.30;99.90;;;;;;5011838;28;20034;-71
2022/10/26 06:29:20;;;;;;;5.50;1.60;;;14.30;99.90;;;;;;5011523;28;20395;-71
2022/10/26 06:31:47;;;;;;;5.05;1.60;;;14.30;99.90;;;;;;4993644;28;20372;-70
2022/10/26 06:34:25;;;;;;;4.13;1.45;;;14.30;99.90;;;;;;5011674;28;20037;-70
2022/10/26 06:36:51;;;;;;;3.67;1.70;;;14.30;99.90;;;;;;5011167;28;20415;-71
2022/10/26 06:39:18;;;;;;;5.03;1.60;;;14.30;99.90;;;;;;5011313;28;20026;-71
2022/10/26 06:41:45;;;;;;;6.93;1.80;;;14.30;99.90;;;;;;5011022;28;20108;-70
2022/10/26 06:44:20;;;;;;;4.28;1.63;;;14.30;99.90;;;;;;5011560;28;20037;-71
2022/10/26 06:47:06;;;;;;;4.68;1.60;;;14.30;99.90;;;;;;5011151;28;20149;-70
2022/10/26 06:50:19;;;;;;;4.03;1.45;;;14.30;99.90;;;;;;5011640;28;20032;-69
2022/10/26 06:52:59;;;;;;;5.82;1.67;;;14.30;99.90;;;;;;5011160;28;20112;-70
2022/10/26 06:55:26;;;;;;;4.20;1.83;;;14.30;99.90;;;;;;4994050;28;20072;-70
2022/10/26 06:57:52;;;;;;;5.50;1.80;;;14.30;99.90;;;;;;5010829;28;20030;-70
2022/10/26 07:00:20;;;;;;;4.53;1.40;;;14.30;99.90;;;;;;5010687;28;20057;-70
2022/10/26 07:02:47;;;;;;;3.92;1.30;;;14.30;99.90;;;;;;5010955;28;20045;-71
2022/10/26 07:05:13;;;;;;;4.75;1.50;;;14.30;99.90;;;;;;5011117;28;20021;-70
2022/10/26 07:07:45;;;;;;;3.28;1.30;;;14.30;99.90;;;;;;5011042;28;20533;-70
2022/10/26 07:10:12;;;;;;;4.95;1.20;;;14.40;99.90;;;;;;5010745;28;20026;-70
2022/10/26 07:12:38;;;;;;;5.47;1.20;;;14.40;99.90;;;;;;5010671;28;20033;-70
2022/10/26 07:15:05;;;;;;;3.00;1.20;;;14.40;99.90;;;;;;5010840;28;20026;-70
2022/10/26 07:17:40;;;;;;;2.88;1.17;;;14.40;99.90;;;;;;4993065;28;20029;-70
2022/10/26 07:20:07;;;;;;;2.78;1.20;;;14.40;99.90;;;;;;5010707;28;20029;-70
2022/10/26 07:22:32;;;;;;;2.70;1.13;;;14.40;99.90;;;;;;5010694;28;20029;-70
2022/10/26 07:24:58;;;;;;;2.80;1.20;;;14.50;99.90;;;;;;5010849;28;20030;-70
2022/10/26 07:27:24;;;;;;;4.63;1.30;;;14.50;99.90;;;;;;4993063;28;20038;-70
2022/10/26 07:29:50;;;;;;;3.70;1.20;;;14.50;99.90;;;;;;5010300;28;20034;-70
2022/10/26 07:32:16;;;;;;;4.65;1.10;;;14.60;99.90;;;;;;5012940;28;20414;-70
2022/10/26 07:34:42;;;;;;;3.55;1.40;;;14.50;99.90;;;;;;5014798;28;20056;-71
2022/10/26 07:37:08;;;;;;;3.95;1.23;;;14.60;99.90;;;;;;5014498;28;20032;-70
2022/10/26 07:39:33;;;;;;;2.92;1.20;;;14.60;99.90;;;;;;5014939;28;20064;-70
2022/10/26 07:41:59;;;;;;;3.22;1.30;;;14.60;99.90;;;;;;5014503;28;20030;-70
2022/10/26 07:44:25;;;;;;;3.58;1.42;;;14.70;99.90;;;;;;5014454;28;20030;-70
2022/10/26 07:46:51;;;;;;;4.40;1.27;;;14.70;99.90;;;;;;5014379;28;20463;-70
2022/10/26 07:49:17;;;;;;;7.50;1.48;;;14.70;99.90;;;;;;5014420;28;20104;-70
2022/10/26 07:51:43;;;;;;;7.18;1.60;;;14.70;99.90;;;;;;5014432;28;20026;-70
2022/10/26 07:54:09;;;;;;;5.85;1.70;;;14.80;99.90;;;;;;5014232;28;20037;-70
2022/10/26 07:56:35;;;;;;;5.60;1.73;;;14.80;99.90;;;;;;5014399;28;20033;-70
2022/10/26 07:59:01;;;;;;;4.28;1.60;;;14.80;99.90;;;;;;5013971;28;20113;-70
2022/10/26 08:01:27;;;;;;;3.38;1.52;;;14.80;99.90;;;;;;4996574;28;20022;-70
2022/10/26 08:03:54;;;;;;;3.33;1.70;;;14.90;99.90;;;;;;5014431;28;20192;-70
2022/10/26 08:06:21;;;;;;;5.38;1.80;;;14.90;99.90;;;;;;4996243;28;20054;-71
2022/10/26 08:08:47;;;;;;;6.35;1.70;;;14.90;99.90;;;;;;4996411;28;20433;-71
2022/10/26 08:11:14;;;;;;;5.00;1.88;;;15.00;99.90;;;;;;5014082;28;20104;-71
2022/10/26 08:13:40;;;;;;;4.30;1.60;;;15.00;99.90;;;;;;5013785;28;20029;-71
2022/10/26 08:16:06;;;;;;;7.47;1.70;;;15.00;99.90;;;;;;5013787;28;20506;-70
2022/10/26 08:18:32;;;;;;;4.40;2.38;;;15.00;99.90;;;;;;5013706;28;20038;-70
2022/10/26 08:21:07;;;;;;;4.88;1.77;;;15.00;99.90;;;;;;5013743;28;20041;-71
2022/10/26 08:23:33;;;;;;;7.22;1.90;;;15.00;99.90;;;;;;5013874;28;20026;-71
2022/10/26 08:26:00;;;;;;;3.20;1.60;;;15.00;99.90;;;;;;5013785;28;20037;-71
2022/10/26 08:28:27;;;;;;;6.53;1.77;;;15.00;99.90;;;;;;5013773;28;20041;-70
2022/10/26 08:30:53;;;;;;;4.88;1.92;;;15.00;99.90;;;;;;5013328;28;20121;-70
2022/10/26 08:33:19;;;;;;;4.15;1.60;;;15.10;99.90;;;;;;5013429;28;20093;-71
2022/10/26 08:35:45;;;;;;;3.83;1.40;;;15.10;99.90;;;;;;4995877;28;20034;-70
2022/10/26 08:38:11;;;;;;;6.72;1.52;;;15.10;99.90;;;;;;5013235;28;20562;-71
2022/10/26 08:40:40;;;;;;;4.75;1.50;;;15.10;99.90;;;;;;5013058;28;20202;-71
2022/10/26 08:43:14;;;;;;;4.70;1.63;;;15.10;99.90;;;;;;5012169;28;20026;-70
2022/10/26 08:45:48;;;;;;;5.55;1.92;;;15.20;99.90;;;;;;4995514;28;20056;-71
2022/10/26 08:48:26;;;;;;;5.32;1.30;;;15.20;99.90;;;;;;5013463;28;20052;-70
2022/10/26 08:51:05;;;;;;;4.18;1.67;;;15.20;99.90;;;;;;4995716;28;20558;-71
2022/10/26 08:53:49;;;;;;;2.85;1.58;;;15.20;99.90;;;;;;5013461;28;20429;-70
2022/10/26 08:56:27;;;;;;;4.28;1.70;;;15.30;99.90;;;;;;5013003;28;20109;-71
2022/10/26 08:59:00;;;;;;;7.75;1.98;;;15.30;99.90;;;;;;5013005;28;20030;-70
2022/10/26 09:01:26;;;;;;;5.70;1.70;;;15.30;99.90;;;;;;5012856;28;20045;-70
2022/10/26 09:03:52;;;;;;;5.70;1.70;;;15.30;99.90;;;;;;4995515;28;20029;-70
2022/10/26 09:06:43;;;;;;;4.95;2.20;;;15.30;99.90;;;;;;5012923;28;20054;-71
2022/10/26 09:09:16;;;;;;;9.45;1.60;;;15.40;99.90;;;;;;5012704;28;20405;-71
2022/10/26 09:11:56;;;;;;;6.15;1.70;;;15.40;99.90;;;;;;5012682;28;20084;-70
2022/10/26 09:14:30;;;;;;;4.88;1.70;;;15.50;99.90;;;;;;4995515;28;20109;-71
2022/10/26 09:17:28;;;;;;;5.07;1.95;;;15.50;99.90;;;;;;5012878;28;20022;-71
2022/10/26 09:20:14;;;;;;;6.57;1.70;;;15.60;99.90;;;;;;5012329;28;20114;-71
2022/10/26 09:22:51;;;;;;;4.20;1.60;;;15.60;99.90;;;;;;5001783;28;20041;-71
2022/10/26 09:25:22;;;;;;;4.90;1.88;;;15.60;99.90;;;;;;5012773;28;20037;-70
2022/10/26 09:27:56;;;;;;;5.10;1.80;;;15.60;99.90;;;;;;5012216;28;20072;-71
2022/10/26 09:30:22;;;;;;;4.78;2.50;;;15.60;99.90;;;;;;5012202;28;20034;-71
2022/10/26 09:32:58;;;;;;;6.28;2.10;;;15.60;99.90;;;;;;4994792;28;20105;-70
2022/10/26 09:35:45;;;;;;;5.72;2.30;;;15.60;99.90;;;;;;5012258;28;20208;-70
2022/10/26 09:38:32;;;;;;;6.25;1.90;;;15.60;99.90;;;;;;5012270;28;20117;-71
2022/10/26 09:41:28;;;;;;;6.75;2.08;;;15.60;99.90;;;;;;5012085;28;20069;-70
2022/10/26 09:44:27;;;;;;;6.55;2.50;;;15.60;99.90;;;;;;5012315;28;20037;-70
2022/10/26 09:47:05;;;;;;;;;;;15.60;99.90;;;;;;5012429;28;20030;-72
2022/10/26 09:49:40;;;;;;;4.60;1.70;;;15.60;99.90;;;;;;5012251;28;19916;-70
2022/10/26 09:52:06;;;;;;;8.57;2.05;;;15.60;99.90;;;;;;5012214;28;20034;-70
2022/10/26 09:54:32;;;;;;;7.55;2.22;;;15.60;99.90;;;;;;4994515;28;20419;-70
2022/10/26 09:57:01;;;;;;;6.57;2.40;;;15.60;99.90;;;;;;5011862;28;20104;-71
2022/10/26 09:59:32;;;;;;;5.35;2.30;;;15.70;99.90;;;;;;5011508;28;20064;-71
2022/10/26 10:01:58;;;;;;;4.82;1.95;;;15.70;99.90;;;;;;5011624;28;20026;-70
2022/10/26 10:04:27;;;;;;;5.80;2.03;;;15.70;99.90;;;;;;4994117;28;20088;-70
2022/10/26 10:07:12;;;;;;;6.78;1.80;;;15.70;99.90;;;;;;5011840;28;20458;-70
2022/10/26 10:09:39;;;;;;;5.07;1.75;;;15.80;99.90;;;;;;5011692;28;20101;-71
2022/10/26 10:12:05;;;;;;;7.40;2.08;;;15.80;99.90;;;;;;5012021;28;20026;-71
2022/10/26 10:14:39;;;;;;;4.60;1.98;;;15.90;99.90;;;;;;5011837;28;20030;-70
2022/10/26 10:17:09;;;;;;;7.28;2.15;;;15.90;99.90;;;;;;5011390;28;20108;-71
2022/10/26 10:19:37;;;;;;;6.78;2.05;;;16.00;99.90;;;;;;5011615;28;20062;-71
2022/10/26 10:22:22;;;;;;;10.43;2.38;;;16.00;99.90;;;;;;5011859;28;20478;-70
2022/10/26 10:24:56;;;;;;;6.05;2.13;;;16.00;99.90;;;;;;5011477;28;20398;-71
2022/10/26 10:27:23;;;;;;;6.00;2.10;;;16.10;99.90;;;;;;4993885;28;20062;-71
2022/10/26 10:29:54;;;;;;;6.20;1.95;;;16.10;99.90;;;;;;5011399;28;20495;-70
2022/10/26 10:32:26;;;;;;;8.48;2.20;;;16.20;99.90;;;;;;4977277;28;20026;-71
2022/10/26 10:34:57;;;;;;;5.75;1.98;;;16.30;99.90;;;;;;4993740;28;20029;-71
2022/10/26 10:37:29;;;;;;;10.18;2.03;;;16.30;99.90;;;;;;5011218;28;20420;-71
2022/10/26 10:40:01;;;;;;;5.15;2.10;;;16.50;99.90;;;;;;5011226;28;20030;-71
2022/10/26 10:42:31;;;;;;;8.70;2.53;;;16.40;99.90;;;;;;5011517;28;20117;-71
2022/10/26 10:44:58;;;;;;;8.18;2.78;;;16.50;99.90;;;;;;5011301;28;20030;-71
2022/10/26 10:47:27;;;;;;;5.82;2.20;;;16.50;99.90;;;;;;5011142;28;20525;-71
2022/10/26 10:50:13;;;;;;;5.40;2.47;;;16.60;99.90;;;;;;5010959;28;20478;-71
2022/10/26 10:52:39;;;;;;;9.23;2.55;;;16.60;99.90;;;;;;5000608;28;20498;-71
2022/10/26 10:55:14;;;;;;;10.93;3.03;;;16.60;99.90;;;;;;5011139;28;20519;-70
2022/10/26 10:58:02;;;;;;;5.28;1.92;;;16.70;99.90;;;;;;5011131;28;20077;-71
2022/10/26 11:00:28;;;;;;;5.45;2.00;;;16.70;99.90;;;;;;5010845;28;20497;-71
2022/10/26 11:03:15;;;;;;;11.75;2.53;;;16.70;99.90;;;;;;5010999;28;20034;-71
2022/10/26 11:06:05;;;;;;;5.80;2.28;;;16.80;99.90;;;;;;5010762;28;20036;-71
2022/10/26 11:08:56;;;;;;;6.28;1.90;;;16.80;99.90;;;;;;5010746;28;20061;-70
2022/10/26 11:11:32;;;;;;;9.60;2.40;;;16.80;99.90;;;;;;5010900;28;20034;-71
2022/10/26 11:14:07;;;;;;;6.53;2.40;;;16.90;99.90;;;;;;5011035;28;20521;-70
2022/10/26 11:16:41;;;;;;;6.88;2.50;;;16.90;99.90;;;;;;5010725;28;20120;-70
2022/10/26 11:19:17;;;;;;;6.05;2.38;;;17.00;99.90;;;;;;5010826;28;20049;-70
2022/10/26 11:21:46;;;;;;;5.70;2.10;;;16.90;99.90;;;;;;5010840;28;20029;-71
2022/10/26 11:24:34;;;;;;;5.93;1.98;;;17.00;99.90;;;;;;5011067;28;20038;-71
2022/10/26 11:27:19;;;;;;;7.47;2.38;;;17.00;99.90;;;;;;5010392;28;20030;-70
2022/10/26 11:29:54;;;;;;;9.40;3.25;;;17.00;99.90;;;;;;5010593;28;20034;-70
2022/10/26 11:32:29;;;;;;;7.60;2.80;;;17.00;99.90;;;;;;5010527;28;20022;-71
2022/10/26 11:35:04;;;;;;;6.60;2.30;;;17.10;99.90;;;;;;5010928;28;20469;-71
2022/10/26 11:37:49;;;;;;;10.90;2.50;;;17.20;99.90;;;;;;5002535;28;20117;-70
2022/10/26 11:40:38;;;;;;;11.55;2.15;;;17.30;99.90;;;;;;5010478;28;20026;-70
2022/10/26 11:43:29;;;;;;;4.63;2.22;;;17.40;99.90;;;;;;5010729;28;20041;-70
2022/10/26 11:46:18;;;;;;;6.93;2.33;;;17.40;99.90;;;;;;5010206;28;20097;-70
2022/10/26 11:49:00;;;;;;;8.00;2.53;;;17.50;99.90;;;;;;5010595;28;20030;-70
2022/10/26 11:51:35;;;;;;;5.88;2.33;;;17.60;99.90;;;;;;4992835;28;20041;-70
2022/10/26 11:54:11;;;;;;;7.47;2.35;;;17.60;99.90;;;;;;5010357;28;20475;-70
2022/10/26 11:56:43;;;;;;;6.72;2.22;;;17.70;99.90;;;;;;5010340;28;20030;-71
2022/10/26 11:59:21;;;;;;;7.00;1.98;;;17.80;99.90;;;;;;5010396;28;20034;-71
2022/10/26 12:01:51;;;;;;;7.82;1.88;;;17.80;99.90;;;;;;5010210;28;20022;-71
2022/10/26 12:04:21;;;;;;;5.45;1.70;;;17.70;99.90;;;;;;5010286;28;20034;-70
2022/10/26 12:06:50;;;;;;;5.32;1.67;;;17.70;99.90;;;;;;5010155;28;20415;-71
2022/10/26 12:09:32;;;;;;;7.93;1.70;;;17.80;99.90;;;;;;5010023;28;20033;-71
2022/10/26 12:12:08;;;;;;;5.85;1.70;;;17.90;99.90;;;;;;5010144;28;20038;-71
2022/10/26 12:14:48;;;;;;;8.32;1.85;;;17.90;99.90;;;;;;5010210;28;20554;-70
2022/10/26 12:17:56;;;;;;;4.13;1.70;;;17.90;99.90;;;;;;4992661;28;20041;-70
2022/10/26 12:20:51;;;;;;;5.50;1.50;;;18.00;99.90;;;;;;4952729;29;20393;-70
2022/10/26 12:23:17;;;;;;;8.95;2.33;;;18.00;99.90;;;;;;5013161;28;20040;-71
2022/10/26 12:25:46;;;;;;;7.72;2.25;;;18.00;99.90;;;;;;5013498;28;20037;-70
2022/10/26 12:28:33;;;;;;;6.38;1.90;;;18.10;99.90;;;;;;5013846;28;20025;-71
2022/10/26 12:31:35;;;;;;;7.22;2.08;;;18.20;99.90;;;;;;5013587;28;20055;-71
2022/10/26 12:34:02;;;;;;;5.57;2.00;;;18.20;99.90;;;;;;4952309;28;20035;-71
2022/10/26 12:36:56;;;;;;;7.63;1.80;;;18.20;99.90;;;;;;5001550;28;20132;-70
2022/10/26 12:39:28;;;;;;;4.50;1.63;;;18.20;99.90;;;;;;4996025;28;20033;-71
2022/10/26 12:42:10;;;;;;;6.10;2.10;;;18.20;99.90;;;;;;4979589;28;20042;-71
2022/10/26 12:44:40;;;;;;;3.63;1.52;;;18.10;99.90;;;;;;5013374;28;20166;-70
2022/10/26 12:47:29;;;;;;;2.83;1.40;;;18.20;99.90;;;;;;5013484;28;20105;-71
2022/10/26 12:50:10;;;;;;;4.57;1.80;;;18.10;99.90;;;;;;5013143;28;20113;-70
2022/10/26 12:52:58;;;;;;;4.63;1.70;;;18.10;99.90;;;;;;4995549;28;20034;-71
2022/10/26 12:55:49;;;;;;;7.57;1.75;;;18.10;99.90;;;;;;5013389;28;20089;-71
2022/10/26 12:58:27;;;;;;;4.25;1.55;;;18.30;99.90;;;;;;5013140;28;20033;-71
2022/10/26 13:01:18;;;;;;;4.53;1.30;;;18.30;99.90;;;;;;5012914;28;20037;-71
2022/10/26 13:03:57;;;;;;;5.07;1.30;;;18.30;99.90;;;;;;5012857;28;20451;-72
2022/10/26 13:06:42;;;;;;;;;;;18.30;99.90;;;;;;5013213;28;20112;-72
2022/10/26 13:09:39;;;;;;;4.13;1.48;;;18.20;99.90;;;;;;5013024;28;19949;-72
2022/10/26 13:12:05;;;;;;;5.28;1.63;;;18.20;99.90;;;;;;5009569;28;20121;-71
2022/10/26 13:14:40;;;;;;;5.90;1.80;;;18.30;99.90;;;;;;5012669;28;20038;-71
2022/10/26 13:17:19;;;;;;;4.32;1.42;;;18.30;99.90;;;;;;5012587;28;20576;-72